Time;durP1;ratioP1;P1;durP2;ratioP2;P2;SDS_P1;SDS_P2;PMS_P1;PMS_P2;Temp;Humidity;BMP_temperature;BMP_pressure;BME280_temperature;BME280_humidity;BME280_pressure;Samples;Min_cycle;Max_cycle;Signal;HPM_P1;HPM_P2
2021/04/01 00:02:16;;;;;;;2.77;1.00;;;;;;;;;;5015567;28;20599;-75
2021/04/01 00:04:42;;;;;;;2.03;1.00;;;;;;;;;;5015364;28;20040;-75
2021/04/01 00:07:07;;;;;;;2.70;1.10;;;;;;;;;;4998897;28;20108;-75
2021/04/01 00:09:32;;;;;;;1.30;0.90;;;;;;;;;;5015431;28;20108;-75
2021/04/01 00:11:58;;;;;;;1.67;1.00;;;;;;;;;;5015507;28;20104;-75
2021/04/01 00:14:25;;;;;;;1.90;0.87;;;;;;;;;;5015628;28;20510;-75
2021/04/01 00:16:50;;;;;;;2.40;1.20;;;;;;;;;;5015665;28;20030;-75
2021/04/01 00:19:15;;;;;;;1.53;0.83;;;;;;;;;;4998868;28;20030;-75
2021/04/01 00:21:41;;;;;;;2.40;0.90;;;;;;;;;;4982700;28;20377;-75
2021/04/01 00:24:06;;;;;;;2.23;0.90;;;;;;;;;;4982645;28;20103;-75
2021/04/01 00:26:32;;;;;;;1.10;0.80;;;;;;;;;;4998980;28;20027;-75
2021/04/01 00:28:57;;;;;;;2.30;1.03;;;;;;;;;;5015255;28;20021;-75
2021/04/01 00:31:22;;;;;;;2.70;1.00;;;;;;;;;;5015142;28;20195;-75
2021/04/01 00:33:48;;;;;;;2.23;0.90;;;;;;;;;;4982560;28;20116;-75
2021/04/01 00:36:13;;;;;;;1.60;0.80;;;;;;;;;;4998864;28;20128;-75
2021/04/01 00:38:38;;;;;;;2.17;1.00;;;;;;;;;;4998749;28;20097;-75
2021/04/01 00:41:04;;;;;;;3.03;1.00;;;;;;;;;;4998698;28;20478;-75
2021/04/01 00:43:29;;;;;;;1.93;0.90;;;;;;;;;;5004649;28;20161;-75
2021/04/01 00:45:55;;;;;;;2.13;1.03;;;;;;;;;;5002810;28;20095;-75
2021/04/01 00:48:20;;;;;;;2.13;1.00;;;;;;;;;;4986435;28;20400;-75
2021/04/01 00:50:45;;;;;;;1.60;0.80;;;;;;;;;;5036424;28;20124;-75
2021/04/01 00:53:11;;;;;;;2.40;1.07;;;;;;;;;;5018799;28;20026;-75
2021/04/01 00:55:36;;;;;;;2.20;1.10;;;;;;;;;;5002251;28;20079;-75
2021/04/01 00:58:02;;;;;;;1.87;0.90;;;;;;;;;;4986200;28;20021;-75
2021/04/01 01:00:30;;;;;;;2.47;0.95;;;;;;;;;;4986111;28;20025;-75
2021/04/01 01:02:56;;;;;;;1.60;0.93;;;;;;;;;;4986689;28;20029;-75
2021/04/01 01:05:22;;;;;;;2.83;0.97;;;;;;;;;;5002197;28;20146;-75
2021/04/01 01:07:48;;;;;;;1.92;0.90;;;;;;;;;;5002214;28;20029;-75
2021/04/01 01:10:28;;;;;;;2.93;1.13;;;;;;;;;;4985971;28;20454;-75
2021/04/01 01:12:53;;;;;;;1.88;0.88;;;;;;;;;;4987880;28;20503;-75
2021/04/01 01:15:20;;;;;;;1.40;0.70;;;;;;;;;;4985647;28;20116;-75
2021/04/01 01:17:46;;;;;;;2.65;0.90;;;;;;;;;;5001726;28;20560;-75
2021/04/01 01:20:11;;;;;;;2.20;1.00;;;;;;;;;;5001714;28;20060;-75
2021/04/01 01:22:37;;;;;;;1.80;0.97;;;;;;;;;;4985709;28;20026;-75
2021/04/01 01:25:10;;;;;;;2.23;1.10;;;;;;;;;;4985503;28;20068;-75
2021/04/01 01:27:36;;;;;;;2.60;1.10;;;;;;;;;;5001798;28;20025;-75
2021/04/01 01:30:04;;;;;;;2.30;1.00;;;;;;;;;;4985675;28;20032;-75
2021/04/01 01:32:37;;;;;;;2.88;1.00;;;;;;;;;;5017986;28;20032;-75
2021/04/01 01:35:20;;;;;;;2.38;1.05;;;;;;;;;;5004266;28;20042;-75
2021/04/01 01:38:10;;;;;;;1.80;1.00;;;;;;;;;;5001682;28;20484;-75
2021/04/01 01:40:36;;;;;;;1.67;1.02;;;;;;;;;;5004165;28;20492;-75
2021/04/01 01:43:03;;;;;;;2.53;1.15;;;;;;;;;;4985275;28;20030;-75
2021/04/01 01:45:29;;;;;;;1.92;1.00;;;;;;;;;;4985355;28;20035;-75
2021/04/01 01:47:54;;;;;;;1.87;0.90;;;;;;;;;;5001521;28;20021;-75
2021/04/01 01:50:21;;;;;;;1.88;1.00;;;;;;;;;;5017943;28;20055;-75
2021/04/01 01:52:46;;;;;;;2.15;1.00;;;;;;;;;;4985109;28;20128;-75
2021/04/01 01:55:12;;;;;;;1.33;0.80;;;;;;;;;;5016528;28;20495;-76
2021/04/01 01:57:37;;;;;;;1.80;1.03;;;;;;;;;;5015792;23;20044;-77
2021/04/01 02:00:24;;;;;;;1.90;0.97;;;;;;;;;;4987069;28;20083;-77
2021/04/01 02:03:00;;;;;;;1.65;0.90;;;;;;;;;;5019476;28;20036;-77
2021/04/01 02:05:26;;;;;;;1.67;0.90;;;;;;;;;;4982555;28;20076;-77
2021/04/01 02:07:51;;;;;;;2.20;1.10;;;;;;;;;;5017496;28;20017;-77
2021/04/01 02:10:22;;;;;;;1.37;0.87;;;;;;;;;;5002943;28;20535;-77
2021/04/01 02:12:47;;;;;;;1.52;0.88;;;;;;;;;;5002688;28;20025;-77
2021/04/01 02:15:17;;;;;;;1.53;0.80;;;;;;;;;;5018872;28;20029;-77
2021/04/01 02:17:42;;;;;;;1.70;1.00;;;;;;;;;;5018882;28;20431;-77
2021/04/01 02:20:09;;;;;;;2.13;1.10;;;;;;;;;;5002281;28;20017;-77
2021/04/01 02:22:34;;;;;;;2.05;1.02;;;;;;;;;;5018510;28;20029;-78
2021/04/01 02:24:59;;;;;;;1.50;0.90;;;;;;;;;;5001914;28;20102;-78
2021/04/01 02:27:25;;;;;;;2.00;1.10;;;;;;;;;;5018560;28;20391;-77
2021/04/01 02:29:51;;;;;;;2.00;0.98;;;;;;;;;;4986167;28;20017;-77
2021/04/01 02:32:16;;;;;;;1.87;1.07;;;;;;;;;;5018774;28;20033;-77
2021/04/01 02:34:41;;;;;;;1.83;1.17;;;;;;;;;;5002336;28;20116;-77
2021/04/01 02:37:07;;;;;;;2.43;1.30;;;;;;;;;;4985911;28;20053;-77
2021/04/01 02:39:32;;;;;;;2.13;1.10;;;;;;;;;;5018313;28;20473;-78
2021/04/01 02:41:57;;;;;;;2.30;1.10;;;;;;;;;;5002973;28;20033;-78
2021/04/01 02:44:23;;;;;;;1.90;1.10;;;;;;;;;;5019031;28;20043;-77
2021/04/01 02:46:48;;;;;;;1.50;0.90;;;;;;;;;;5003231;28;20064;-77
2021/04/01 02:49:13;;;;;;;1.97;0.90;;;;;;;;;;5037351;28;20520;-77
2021/04/01 02:51:39;;;;;;;2.40;1.10;;;;;;;;;;5002767;28;20484;-77
2021/04/01 02:54:04;;;;;;;2.13;1.00;;;;;;;;;;5019279;28;20048;-77
2021/04/01 02:56:30;;;;;;;1.83;0.80;;;;;;;;;;5001262;28;20072;-77
2021/04/01 02:58:55;;;;;;;1.77;0.80;;;;;;;;;;5001310;28;20175;-77
2021/04/01 03:01:22;;;;;;;2.07;1.00;;;;;;;;;;5001629;28;20064;-77
2021/04/01 03:03:48;;;;;;;1.90;1.00;;;;;;;;;;5017913;28;20033;-77
2021/04/01 03:06:14;;;;;;;1.90;1.15;;;;;;;;;;5002292;28;20033;-77
2021/04/01 03:08:39;;;;;;;1.93;0.97;;;;;;;;;;4986131;28;20031;-77
2021/04/01 03:11:04;;;;;;;2.13;1.00;;;;;;;;;;5018497;28;20167;-78
2021/04/01 03:13:30;;;;;;;2.17;1.03;;;;;;;;;;5001928;28;20026;-78
2021/04/01 03:15:55;;;;;;;1.83;0.90;;;;;;;;;;5019175;28;20560;-77
2021/04/01 03:18:21;;;;;;;2.30;1.20;;;;;;;;;;5018242;28;20100;-77
2021/04/01 03:20:46;;;;;;;2.13;1.17;;;;;;;;;;5001891;28;20025;-77
2021/04/01 03:23:12;;;;;;;2.43;1.10;;;;;;;;;;5002452;28;20381;-78
2021/04/01 03:25:37;;;;;;;1.80;1.10;;;;;;;;;;5001629;28;20473;-78
2021/04/01 03:28:03;;;;;;;3.17;1.17;;;;;;;;;;5018609;28;20060;-77
2021/04/01 03:30:28;;;;;;;2.70;1.10;;;;;;;;;;5017839;28;20387;-78
2021/04/01 03:32:53;;;;;;;2.30;1.10;;;;;;;;;;5001240;28;20055;-78
2021/04/01 03:35:22;;;;;;;1.70;0.90;;;;;;;;;;5035483;28;20488;-78
2021/04/01 03:37:49;;;;;;;1.95;1.10;;;;;;;;;;5018289;28;20048;-78
2021/04/01 03:40:14;;;;;;;1.48;0.88;;;;;;;;;;5001529;28;20033;-77
2021/04/01 03:42:39;;;;;;;1.90;0.93;;;;;;;;;;4984646;28;20387;-78
2021/04/01 03:45:10;;;;;;;1.70;1.00;;;;;;;;;;5017962;28;20036;-77
2021/04/01 03:47:36;;;;;;;1.67;1.00;;;;;;;;;;5001507;28;20031;-77
2021/04/01 03:50:01;;;;;;;2.55;1.20;;;;;;;;;;5001426;28;20025;-77
2021/04/01 03:52:26;;;;;;;2.07;1.00;;;;;;;;;;5001266;28;20396;-77
2021/04/01 03:54:56;;;;;;;2.13;1.20;;;;;;;;;;5017757;28;20052;-77
2021/04/01 03:57:21;;;;;;;2.22;1.00;;;;;;;;;;5018146;28;20052;-77
2021/04/01 04:00:12;;;;;;;2.20;1.20;;;;;;;;;;4983392;28;20480;-77
2021/04/01 04:06:08;;;;;;;1.90;0.90;;;;;;;;;;5018019;28;20487;-76
2021/04/01 04:15:45;;;;;;;2.72;1.17;;;;;;;;;;5013477;28;20108;-77
2021/04/01 04:18:11;;;;;;;2.20;1.10;;;;;;;;;;4981507;28;20516;-77
2021/04/01 04:20:37;;;;;;;2.10;1.00;;;;;;;;;;5000206;28;20113;-77
2021/04/01 04:23:02;;;;;;;2.40;1.20;;;;;;;;;;4983645;28;20404;-77
2021/04/01 04:25:28;;;;;;;2.13;1.10;;;;;;;;;;4999776;28;20116;-77
2021/04/01 04:28:05;;;;;;;2.70;1.20;;;;;;;;;;5017264;28;20176;-76
2021/04/01 04:30:30;;;;;;;2.25;1.08;;;;;;;;;;4986879;28;20433;-77
2021/04/01 04:32:56;;;;;;;2.70;1.20;;;;;;;;;;4983289;28;20135;-77
2021/04/01 04:35:21;;;;;;;2.30;1.07;;;;;;;;;;5014157;28;20076;-76
2021/04/01 04:37:47;;;;;;;1.77;0.90;;;;;;;;;;4986648;28;20392;-77
2021/04/01 04:40:12;;;;;;;1.83;1.10;;;;;;;;;;5019091;28;20112;-77
2021/04/01 04:42:38;;;;;;;2.10;1.10;;;;;;;;;;5002661;28;20029;-77
2021/04/01 04:45:05;;;;;;;2.23;1.20;;;;;;;;;;5002656;28;20026;-76
2021/04/01 04:47:30;;;;;;;1.80;0.90;;;;;;;;;;5018940;28;20029;-77
2021/04/01 04:49:55;;;;;;;1.90;1.03;;;;;;;;;;5019130;28;20021;-77
2021/04/01 04:52:21;;;;;;;2.07;0.90;;;;;;;;;;5018815;28;20112;-77
2021/04/01 04:54:47;;;;;;;1.53;0.80;;;;;;;;;;4986323;28;20025;-77
2021/04/01 04:57:19;;;;;;;2.30;1.20;;;;;;;;;;5002312;28;20048;-77
2021/04/01 05:04:59;;;;;;;2.15;1.20;;;;;;;;;;5020078;28;20554;-76
2021/04/01 05:07:25;;;;;;;1.77;0.95;;;;;;;;;;5003473;28;20029;-77
2021/04/01 05:09:50;;;;;;;2.33;1.00;;;;;;;;;;4983076;28;20160;-77
2021/04/01 05:12:15;;;;;;;1.33;0.90;;;;;;;;;;4991851;28;20109;-77
2021/04/01 05:14:41;;;;;;;2.13;0.90;;;;;;;;;;5018456;28;20041;-77
2021/04/01 05:17:07;;;;;;;2.40;1.03;;;;;;;;;;4985834;28;20503;-76
2021/04/01 05:19:34;;;;;;;2.07;1.03;;;;;;;;;;5018492;28;20538;-76
2021/04/01 05:24:31;;;;;;;1.67;0.90;;;;;;;;;;5004270;28;20033;-76
2021/04/01 05:29:28;;;;;;;2.17;1.30;;;;;;;;;;5018455;28;20128;-77
2021/04/01 05:31:53;;;;;;;2.20;1.10;;;;;;;;;;5002536;28;20060;-76
2021/04/01 05:34:19;;;;;;;2.43;1.23;;;;;;;;;;5001721;28;20489;-76
2021/04/01 05:36:45;;;;;;;1.98;1.02;;;;;;;;;;4985341;28;20029;-77
2021/04/01 05:39:23;;;;;;;2.27;1.20;;;;;;;;;;5001526;28;20121;-77
2021/04/01 05:41:49;;;;;;;1.48;0.88;;;;;;;;;;4988614;28;20287;-77
2021/04/01 05:44:29;;;;;;;;;;;;;;;;;;5002395;28;20034;-76
2021/04/01 06:05:41;;;;;;;1.67;1.00;;;;;;;;;;5003386;28;20083;-77
2021/04/01 06:08:09;;;;;;;2.58;1.05;;;;;;;;;;5001874;28;20057;-76
2021/04/01 06:10:36;;;;;;;1.98;1.10;;;;;;;;;;4985605;28;20029;-77
2021/04/01 06:13:09;;;;;;;2.38;1.23;;;;;;;;;;4985191;28;20033;-76
2021/04/01 06:15:35;;;;;;;1.98;1.00;;;;;;;;;;5001183;28;20040;-77
2021/04/01 06:18:08;;;;;;;2.70;1.17;;;;;;;;;;5001010;28;20022;-77
2021/04/01 06:20:34;;;;;;;2.03;1.10;;;;;;;;;;5001921;28;20104;-77
2021/04/01 06:22:59;;;;;;;2.47;1.10;;;;;;;;;;5017733;28;20475;-77
2021/04/01 06:25:25;;;;;;;2.03;1.10;;;;;;;;;;5000944;28;20105;-77
2021/04/01 06:27:53;;;;;;;2.77;1.10;;;;;;;;;;4984705;28;20507;-77
2021/04/01 06:30:23;;;;;;;1.88;1.27;;;;;;;;;;5001611;28;20088;-77
2021/04/01 06:33:01;;;;;;;2.20;1.20;;;;;;;;;;5018226;28;20491;-77
2021/04/01 06:35:31;;;;;;;2.60;1.20;;;;;;;;;;5001650;28;20021;-77
2021/04/01 06:40:53;;;;;;;2.20;1.13;;;;;;;;;;5016302;28;20096;-77
2021/04/01 06:43:22;;;;;;;2.13;1.30;;;;;;;;;;5000940;28;20029;-77
2021/04/01 06:45:53;;;;;;;2.40;1.23;;;;;;;;;;5034685;28;20026;-77
2021/04/01 06:48:20;;;;;;;2.42;1.20;;;;;;;;;;5000669;28;20075;-77
2021/04/01 06:50:51;;;;;;;2.47;1.30;;;;;;;;;;5001098;28;20033;-77
2021/04/01 06:53:21;;;;;;;2.70;1.23;;;;;;;;;;4984466;28;20034;-76
2021/04/01 06:56:03;;;;;;;1.70;1.05;;;;;;;;;;5017765;28;20041;-77
2021/04/01 06:58:42;;;;;;;2.08;1.10;;;;;;;;;;4986773;28;20489;-76
2021/04/01 07:03:38;;;;;;;2.03;1.07;;;;;;;;;;5034667;28;20018;-76
2021/04/01 07:06:07;;;;;;;2.45;1.20;;;;;;;;;;5016948;28;20021;-77
2021/04/01 07:08:46;;;;;;;2.58;1.20;;;;;;;;;;5017203;28;20032;-77
2021/04/01 07:11:44;;;;;;;2.28;1.27;;;;;;;;;;5004325;28;20099;-77
2021/04/01 07:14:16;;;;;;;1.83;1.02;;;;;;;;;;4985163;28;20037;-77
2021/04/01 07:16:56;;;;;;;1.90;1.20;;;;;;;;;;5001225;28;20036;-77
2021/04/01 07:19:33;;;;;;;2.45;1.17;;;;;;;;;;5004572;28;20041;-77
2021/04/01 07:46:19;;;;;;;2.85;1.25;;;;;;;;;;5005289;28;20070;-77
2021/04/01 07:48:50;;;;;;;3.17;1.38;;;;;;;;;;5019178;28;20056;-77
2021/04/01 07:54:24;;;;;;;2.30;1.10;;;;;;;;;;5004937;28;20113;-77
2021/04/01 07:57:03;;;;;;;2.65;1.42;;;;;;;;;;4999787;28;20037;-77
2021/04/01 07:59:48;;;;;;;2.72;1.30;;;;;;;;;;5002735;28;20040;-77
2021/04/01 08:02:35;;;;;;;3.13;1.10;;;;;;;;;;4990011;28;20025;-77
2021/04/01 08:05:00;;;;;;;2.50;1.10;;;;;;;;;;4989014;28;20089;-77
2021/04/01 08:07:31;;;;;;;2.30;1.20;;;;;;;;;;4984480;28;20618;-77
2021/04/01 08:10:00;;;;;;;1.92;1.02;;;;;;;;;;5001513;28;20025;-77
2021/04/01 08:12:29;;;;;;;3.00;1.23;;;;;;;;;;5002319;28;20026;-77
2021/04/01 08:15:08;;;;;;;2.17;1.20;;;;;;;;;;4985350;28;20025;-77
2021/04/01 08:18:00;;;;;;;1.98;1.13;;;;;;;;;;5000611;28;20025;-77
2021/04/01 08:20:22;;;;;;;2.38;1.30;;;;;;;;;;5006533;28;20103;-77
2021/04/01 08:22:57;;;;;;;2.35;1.30;;;;;;;;;;4984933;28;20018;-77
2021/04/01 08:25:24;;;;;;;4.05;1.30;;;;;;;;;;5001656;28;20053;-77
2021/04/01 08:35:25;;;;;;;1.77;1.00;;;;;;;;;;5017323;28;20124;-77
2021/04/01 08:38:05;;;;;;;1.80;1.10;;;;;;;;;;5017843;28;20018;-78
2021/04/01 08:40:30;;;;;;;1.45;0.93;;;;;;;;;;5005001;28;20033;-77
2021/04/01 08:43:05;;;;;;;1.90;1.10;;;;;;;;;;5001198;28;20049;-78
2021/04/01 08:45:42;;;;;;;1.90;1.10;;;;;;;;;;5035697;28;20029;-77
2021/04/01 08:48:13;;;;;;;2.30;1.30;;;;;;;;;;5035047;28;20057;-78
2021/04/01 08:51:00;;;;;;;2.10;1.25;;;;;;;;;;5017987;28;20536;-77
2021/04/01 08:54:02;;;;;;;2.03;1.00;;;;;;;;;;5004922;28;20049;-77
2021/04/01 08:56:42;;;;;;;1.95;1.13;;;;;;;;;;4996732;28;20030;-78
2021/04/01 08:59:16;;;;;;;2.78;1.20;;;;;;;;;;4981761;28;20030;-77
2021/04/01 09:01:42;;;;;;;1.63;1.00;;;;;;;;;;4988972;28;20025;-77
2021/04/01 09:04:07;;;;;;;2.63;1.27;;;;;;;;;;4977711;28;20041;-77
2021/04/01 09:06:38;;;;;;;2.07;1.07;;;;;;;;;;5000621;28;20028;-77
2021/04/01 09:09:06;;;;;;;1.85;1.30;;;;;;;;;;4968411;28;20595;-77
2021/04/01 09:11:45;;;;;;;1.67;1.10;;;;;;;;;;5000535;28;20539;-77
2021/04/01 09:14:21;;;;;;;2.38;1.30;;;;;;;;;;5002427;28;20083;-77
2021/04/01 09:19:36;;;;;;;1.80;1.05;;;;;;;;;;5000923;28;20420;-77
2021/04/01 09:22:01;;;;;;;1.73;0.90;;;;;;;;;;5000316;28;20421;-77
2021/04/01 09:24:32;;;;;;;2.83;1.03;;;;;;;;;;5000089;28;20029;-77
2021/04/01 09:26:59;;;;;;;1.90;0.93;;;;;;;;;;4984804;28;20079;-78
2021/04/01 09:29:25;;;;;;;1.92;1.08;;;;;;;;;;4983168;28;20021;-77
2021/04/01 09:31:55;;;;;;;1.83;1.10;;;;;;;;;;4967677;28;20117;-77
2021/04/01 09:34:20;;;;;;;1.80;1.02;;;;;;;;;;4987111;28;20116;-77
2021/04/01 09:36:46;;;;;;;3.20;1.10;;;;;;;;;;5003358;28;20113;-77
2021/04/01 09:41:47;;;;;;;2.05;1.20;;;;;;;;;;5005646;28;20099;-77
2021/04/01 09:44:12;;;;;;;2.10;1.20;;;;;;;;;;5020221;28;20021;-77
2021/04/01 09:47:15;;;;;;;2.17;1.07;;;;;;;;;;5021231;28;20040;-78
2021/04/01 09:49:47;;;;;;;2.75;1.17;;;;;;;;;;4972423;28;20472;-78
2021/04/01 09:52:21;;;;;;;5.70;1.23;;;;;;;;;;5005156;28;20029;-78
2021/04/01 09:54:56;;;;;;;2.40;1.10;;;;;;;;;;5004254;28;20018;-77
2021/04/01 09:57:37;;;;;;;4.53;1.20;;;;;;;;;;4986108;28;20108;-77
2021/04/01 10:03:37;;;;;;;3.65;1.33;;;;;;;;;;5002521;28;20116;-78
2021/04/01 10:06:02;;;;;;;5.60;1.60;;;;;;;;;;4973420;28;20029;-77
2021/04/01 10:08:32;;;;;;;5.20;1.73;;;;;;;;;;5003428;28;20037;-77
2021/04/01 10:11:21;;;;;;;4.60;1.85;;;;;;;;;;4986461;28;20022;-77
2021/04/01 10:13:47;;;;;;;4.43;1.95;;;;;;;;;;5002441;28;20034;-77
2021/04/01 10:16:23;;;;;;;5.20;2.10;;;;;;;;;;4982857;28;20060;-77
2021/04/01 10:18:48;;;;;;;5.65;2.22;;;;;;;;;;4992033;28;20026;-77
2021/04/01 10:21:14;;;;;;;6.17;2.40;;;;;;;;;;4986310;28;20075;-77
2021/04/01 10:23:45;;;;;;;6.20;2.47;;;;;;;;;;5019229;28;20057;-77
2021/04/01 10:26:12;;;;;;;7.05;2.47;;;;;;;;;;5019106;28;20107;-77
2021/04/01 10:31:12;;;;;;;6.30;2.87;;;;;;;;;;5003066;28;20471;-78
2021/04/01 10:33:51;;;;;;;6.40;2.70;;;;;;;;;;5005410;28;20083;-78
2021/04/01 10:36:16;;;;;;;8.10;2.85;;;;;;;;;;5005921;28;20431;-77
2021/04/01 10:38:42;;;;;;;7.43;2.83;;;;;;;;;;5004418;28;20030;-78
2021/04/01 10:41:18;;;;;;;8.70;2.90;;;;;;;;;;4987897;28;20049;-78
2021/04/01 10:43:44;;;;;;;8.13;3.20;;;;;;;;;;5006851;28;20032;-77
2021/04/01 10:46:17;;;;;;;9.93;3.13;;;;;;;;;;5002608;28;20268;-78
2021/04/01 10:51:10;;;;;;;7.53;2.83;;;;;;;;;;5051537;28;20407;-75
2021/04/01 10:53:42;;;;;;;7.73;3.17;;;;;;;;;;5003666;28;20029;-75
2021/04/01 10:56:08;;;;;;;8.80;2.88;;;;;;;;;;5003236;28;20021;-76
2021/04/01 10:58:34;;;;;;;7.88;3.03;;;;;;;;;;5020089;28;20032;-75
2021/04/01 11:01:00;;;;;;;9.50;2.90;;;;;;;;;;5019752;28;20029;-75
2021/04/01 11:03:27;;;;;;;10.25;3.03;;;;;;;;;;5019917;28;20024;-75
2021/04/01 11:05:52;;;;;;;9.90;3.13;;;;;;;;;;5019885;28;20033;-75
2021/04/01 11:08:20;;;;;;;7.20;2.87;;;;;;;;;;5004796;28;20396;-76
2021/04/01 11:10:46;;;;;;;10.57;3.15;;;;;;;;;;5014001;28;20021;-76
2021/04/01 11:13:13;;;;;;;6.68;2.80;;;;;;;;;;5019556;28;20036;-74
2021/04/01 11:15:40;;;;;;;7.25;2.85;;;;;;;;;;5001277;28;20034;-75
2021/04/01 11:18:17;;;;;;;6.55;2.90;;;;;;;;;;5002820;28;20024;-74
2021/04/01 11:20:43;;;;;;;8.30;3.00;;;;;;;;;;5019679;28;20110;-75
2021/04/01 11:23:12;;;;;;;6.60;3.00;;;;;;;;;;5019404;28;20515;-75
2021/04/01 11:25:39;;;;;;;8.25;2.80;;;;;;;;;;5019560;28;20024;-75
2021/04/01 11:28:05;;;;;;;8.15;2.58;;;;;;;;;;5035555;28;20025;-76
2021/04/01 11:31:00;;;;;;;8.80;3.07;;;;;;;;;;5019055;28;20029;-76
2021/04/01 11:33:26;;;;;;;7.32;2.90;;;;;;;;;;5016854;28;20120;-76
2021/04/01 11:36:03;;;;;;;6.95;2.63;;;;;;;;;;5002861;28;20025;-76
2021/04/01 11:38:30;;;;;;;6.55;2.58;;;;;;;;;;5005555;28;20495;-76
2021/04/01 11:41:00;;;;;;;8.55;3.00;;;;;;;;;;5019037;28;20039;-75
2021/04/01 11:43:29;;;;;;;6.90;2.58;;;;;;;;;;5002713;28;20017;-76
2021/04/01 11:45:54;;;;;;;6.40;2.42;;;;;;;;;;5019474;28;20100;-76
2021/04/01 11:48:20;;;;;;;5.23;2.30;;;;;;;;;;5018883;28;20105;-76
2021/04/01 11:50:45;;;;;;;6.60;2.33;;;;;;;;;;5018856;28;20372;-76
2021/04/01 11:53:10;;;;;;;7.13;2.60;;;;;;;;;;5018745;28;20078;-76
2021/04/01 11:55:36;;;;;;;7.70;2.90;;;;;;;;;;5018870;28;20104;-76
2021/04/01 11:58:01;;;;;;;7.63;2.80;;;;;;;;;;5035363;28;20063;-75
2021/04/01 12:00:29;;;;;;;7.43;3.40;;;;;;;;;;5018253;28;20070;-75
2021/04/01 12:03:01;;;;;;;6.30;3.15;;;;;;;;;;5018801;28;20028;-75
2021/04/01 12:05:28;;;;;;;6.35;2.60;;;;;;;;;;5019752;28;20391;-75
2021/04/01 12:07:53;;;;;;;7.95;2.95;;;;;;;;;;5034812;28;20033;-75
2021/04/01 12:10:19;;;;;;;10.63;2.47;;;;;;;;;;5002022;28;20052;-75
2021/04/01 12:12:44;;;;;;;6.20;2.27;;;;;;;;;;5002140;28;20033;-76
2021/04/01 12:15:10;;;;;;;5.03;2.37;;;;;;;;;;5018118;28;20436;-75
2021/04/01 12:17:40;;;;;;;7.57;2.57;;;;;;;;;;5018573;28;20048;-75
2021/04/01 12:20:16;;;;;;;6.75;2.33;;;;;;;;;;5018233;28;20059;-76
2021/04/01 12:22:42;;;;;;;6.75;2.42;;;;;;;;;;5036327;28;20025;-75
2021/04/01 12:25:13;;;;;;;6.25;2.50;;;;;;;;;;5001790;28;20032;-74
2021/04/01 12:27:38;;;;;;;6.47;2.40;;;;;;;;;;5002976;28;20111;-75
2021/04/01 12:30:05;;;;;;;7.33;2.50;;;;;;;;;;5018333;28;20116;-75
2021/04/01 12:32:32;;;;;;;7.32;2.47;;;;;;;;;;5018981;28;20025;-75
2021/04/01 12:35:07;;;;;;;;;;;;;;;;;;5018735;28;20071;-76
2021/04/01 12:37:33;;;;;;;7.25;2.65;;;;;;;;;;5034975;28;19915;-75
2021/04/01 12:40:11;;;;;;;7.77;2.23;;;;;;;;;;5004488;28;20028;-75
2021/04/01 12:42:37;;;;;;;6.28;2.47;;;;;;;;;;5022400;28;20040;-75
2021/04/01 12:45:12;;;;;;;;;;;;;;;;;;5039078;28;20398;-75
2021/04/01 12:47:38;;;;;;;5.28;2.40;;;;;;;;;;5038154;28;19912;-74
2021/04/01 12:50:03;;;;;;;4.97;2.03;;;;;;;;;;5021589;28;20545;-75
2021/04/01 12:52:29;;;;;;;4.40;2.03;;;;;;;;;;5005571;28;20021;-75
2021/04/01 12:54:54;;;;;;;7.13;2.50;;;;;;;;;;5021975;28;20068;-75
2021/04/01 12:57:23;;;;;;;7.57;2.33;;;;;;;;;;5018377;28;20460;-75
2021/04/01 12:59:51;;;;;;;5.40;2.17;;;;;;;;;;5021715;28;20487;-75
2021/04/01 13:02:20;;;;;;;6.38;2.47;;;;;;;;;;5005084;28;20045;-74
2021/04/01 13:04:54;;;;;;;5.63;2.58;;;;;;;;;;5038924;28;20075;-74
2021/04/01 13:12:36;;;;;;;7.10;2.67;;;;;;;;;;5026279;28;20537;-74
2021/04/01 13:15:01;;;;;;;6.13;2.80;;;;;;;;;;5038437;28;20025;-74
2021/04/01 13:17:27;;;;;;;7.47;2.30;;;;;;;;;;5021851;28;20383;-75
2021/04/01 13:19:52;;;;;;;5.80;2.30;;;;;;;;;;5037593;28;20060;-74
2021/04/01 13:22:43;;;;;;;7.40;2.60;;;;;;;;;;5037971;28;20527;-74
2021/04/01 13:25:15;;;;;;;7.72;2.45;;;;;;;;;;5055786;28;20025;-75
2021/04/01 13:27:44;;;;;;;7.72;2.80;;;;;;;;;;5022021;28;20064;-74
2021/04/01 13:30:10;;;;;;;5.70;2.35;;;;;;;;;;5037633;28;20433;-74
2021/04/01 13:32:50;;;;;;;7.70;2.42;;;;;;;;;;5005253;28;20017;-74
2021/04/01 13:35:36;;;;;;;6.72;2.47;;;;;;;;;;5035299;28;20025;-74
2021/04/01 13:38:14;;;;;;;7.80;2.72;;;;;;;;;;5034948;28;20029;-74
2021/04/01 13:40:44;;;;;;;6.65;2.50;;;;;;;;;;5024116;28;20091;-75
2021/04/01 13:43:12;;;;;;;6.70;2.80;;;;;;;;;;5021744;28;20131;-75
2021/04/01 13:45:38;;;;;;;6.50;2.90;;;;;;;;;;5021367;28;20029;-74
2021/04/01 13:48:07;;;;;;;7.72;3.15;;;;;;;;;;5020250;28;20025;-75
2021/04/01 13:50:35;;;;;;;6.85;3.08;;;;;;;;;;5003730;28;20037;-75
2021/04/01 13:53:18;;;;;;;9.52;2.88;;;;;;;;;;5021485;28;20067;-75
2021/04/01 13:55:47;;;;;;;7.35;2.70;;;;;;;;;;5023227;28;20033;-74
2021/04/01 14:01:23;;;;;;;9.35;2.58;;;;;;;;;;5026091;28;20031;-74
2021/04/01 14:04:19;;;;;;;6.25;2.40;;;;;;;;;;5011230;28;20032;-75
2021/04/01 14:09:34;;;;;;;6.63;2.55;;;;;;;;;;5054991;28;20127;-75
2021/04/01 14:12:02;;;;;;;6.03;2.53;;;;;;;;;;5004980;28;20411;-75
2021/04/01 14:14:27;;;;;;;7.57;2.45;;;;;;;;;;5037087;28;20060;-75
2021/04/01 14:16:54;;;;;;;6.60;2.10;;;;;;;;;;5004095;28;20063;-75
2021/04/01 14:19:23;;;;;;;5.75;2.30;;;;;;;;;;5004146;28;20476;-75
2021/04/01 14:21:54;;;;;;;5.10;2.30;;;;;;;;;;5003986;28;20025;-74
2021/04/01 14:24:25;;;;;;;6.28;2.65;;;;;;;;;;5019752;28;20560;-76
2021/04/01 14:27:01;;;;;;;6.32;2.95;;;;;;;;;;5033310;28;20071;-74
2021/04/01 14:29:26;;;;;;;5.85;2.78;;;;;;;;;;4996766;28;20013;-74
2021/04/01 14:31:51;;;;;;;7.57;2.37;;;;;;;;;;5036678;28;20029;-75
2021/04/01 14:34:17;;;;;;;5.90;2.30;;;;;;;;;;5036344;28;20052;-75
2021/04/01 14:36:42;;;;;;;7.10;2.40;;;;;;;;;;5020301;28;20485;-75
2021/04/01 14:39:07;;;;;;;7.00;2.40;;;;;;;;;;5019886;28;20435;-74
2021/04/01 14:44:18;;;;;;;7.10;2.50;;;;;;;;;;5020415;28;20056;-74
2021/04/01 14:46:43;;;;;;;7.07;2.25;;;;;;;;;;5018179;28;20048;-75
2021/04/01 14:49:09;;;;;;;6.40;2.30;;;;;;;;;;4998645;28;20029;-75
2021/04/01 14:51:34;;;;;;;6.83;2.77;;;;;;;;;;5019722;28;20028;-75
2021/04/01 14:54:08;;;;;;;5.23;2.40;;;;;;;;;;5019390;28;20017;-75
2021/04/01 14:56:35;;;;;;;5.35;2.30;;;;;;;;;;5035125;28;20033;-75
2021/04/01 14:59:00;;;;;;;4.82;2.17;;;;;;;;;;5019591;28;20399;-75
2021/04/01 15:01:27;;;;;;;5.43;2.27;;;;;;;;;;5035608;28;20058;-75
2021/04/01 15:03:52;;;;;;;6.53;2.35;;;;;;;;;;4999649;28;20029;-74
2021/04/01 15:06:18;;;;;;;7.13;2.40;;;;;;;;;;5004444;28;20079;-75
2021/04/01 15:08:43;;;;;;;5.47;2.40;;;;;;;;;;5003219;28;20025;-74
2021/04/01 15:11:09;;;;;;;5.87;2.67;;;;;;;;;;5019319;28;20068;-75
2021/04/01 15:13:38;;;;;;;6.13;2.20;;;;;;;;;;5003238;28;20025;-75
2021/04/01 15:16:07;;;;;;;6.55;2.20;;;;;;;;;;5019645;28;20024;-75
2021/04/01 15:18:33;;;;;;;6.03;2.30;;;;;;;;;;5019382;28;20032;-75
2021/04/01 15:20:58;;;;;;;5.93;2.60;;;;;;;;;;5053712;28;20029;-75
2021/04/01 15:23:24;;;;;;;7.37;2.83;;;;;;;;;;5002804;28;20509;-75
2021/04/01 15:25:50;;;;;;;8.02;2.97;;;;;;;;;;5019165;28;20510;-75
2021/04/01 15:28:15;;;;;;;10.43;2.90;;;;;;;;;;5019024;28;20107;-75
2021/04/01 15:30:41;;;;;;;7.43;2.90;;;;;;;;;;5018524;28;20031;-75
2021/04/01 15:33:07;;;;;;;7.22;3.08;;;;;;;;;;5019030;28;20075;-75
2021/04/01 15:35:32;;;;;;;7.43;3.47;;;;;;;;;;5019303;28;20025;-75
2021/04/01 15:37:57;;;;;;;8.73;3.40;;;;;;;;;;5019304;28;20063;-75
2021/04/01 15:40:23;;;;;;;7.88;3.38;;;;;;;;;;5035743;28;20131;-75
2021/04/01 15:42:49;;;;;;;7.73;3.27;;;;;;;;;;5018511;28;20063;-75
2021/04/01 15:45:14;;;;;;;7.97;3.30;;;;;;;;;;5019003;28;20024;-75
2021/04/01 15:47:40;;;;;;;9.50;3.80;;;;;;;;;;5018847;28;20074;-75
2021/04/01 15:50:09;;;;;;;8.30;2.97;;;;;;;;;;5002343;28;20051;-75
2021/04/01 15:52:35;;;;;;;5.65;2.92;;;;;;;;;;5018800;28;20115;-75
2021/04/01 15:55:00;;;;;;;8.77;3.13;;;;;;;;;;5035398;28;20029;-75
2021/04/01 15:57:25;;;;;;;6.40;2.97;;;;;;;;;;5018453;28;20025;-75
2021/04/01 15:59:51;;;;;;;5.77;2.87;;;;;;;;;;5035212;28;20105;-75
2021/04/01 16:02:16;;;;;;;6.70;2.70;;;;;;;;;;5034918;28;20056;-75
2021/04/01 16:04:41;;;;;;;5.87;2.60;;;;;;;;;;5035153;28;20055;-74
2021/04/01 16:07:07;;;;;;;8.50;2.43;;;;;;;;;;5017983;28;20119;-74
2021/04/01 16:09:32;;;;;;;4.97;2.30;;;;;;;;;;5052806;28;20017;-74
2021/04/01 16:11:57;;;;;;;6.73;2.50;;;;;;;;;;5053065;28;20102;-74
2021/04/01 16:14:23;;;;;;;5.27;2.37;;;;;;;;;;5034069;28;20129;-75
2021/04/01 16:16:48;;;;;;;5.17;2.30;;;;;;;;;;5018464;28;20025;-75
2021/04/01 16:19:14;;;;;;;6.47;2.57;;;;;;;;;;5001913;28;20104;-74
2021/04/01 16:21:40;;;;;;;5.10;2.30;;;;;;;;;;5001682;28;21833;-75
2021/04/01 16:24:06;;;;;;;5.53;2.15;;;;;;;;;;5035155;28;20056;-75
2021/04/01 16:26:31;;;;;;;5.47;2.00;;;;;;;;;;5034934;28;20068;-75
2021/04/01 16:28:56;;;;;;;5.80;2.23;;;;;;;;;;5018169;28;20430;-75
2021/04/01 16:31:23;;;;;;;5.43;2.10;;;;;;;;;;5017847;28;20052;-76
2021/04/01 16:33:48;;;;;;;5.18;2.17;;;;;;;;;;5018619;28;20086;-76
2021/04/01 16:36:14;;;;;;;6.03;2.20;;;;;;;;;;5018553;28;20059;-76
2021/04/01 16:38:40;;;;;;;4.33;2.00;;;;;;;;;;5018228;28;20072;-75
2021/04/01 16:41:07;;;;;;;5.47;2.20;;;;;;;;;;5018365;28;20044;-75